createdAt,value
2024-05-09T00:02:58.779Z,14.1
2024-05-09T00:08:05.085Z,14.7
2024-05-09T00:13:11.037Z,14.1
2024-05-09T00:18:17.247Z,13.4
2024-05-09T00:23:23.220Z,14.4
2024-05-09T00:28:29.333Z,14.1
2024-05-09T00:33:35.462Z,14.4
2024-05-09T00:38:40.563Z,14.4
2024-05-09T00:43:46.689Z,14.1
2024-05-09T00:48:52.797Z,14.1
2024-05-09T00:53:58.926Z,14.1
2024-05-09T00:59:05.034Z,14.4
2024-05-09T01:04:11.228Z,14.4
2024-05-09T01:09:17.256Z,13.4
2024-05-09T01:14:23.383Z,13.8
2024-05-09T01:19:29.474Z,13.4
2024-05-09T01:24:35.603Z,13.8
2024-05-09T01:29:41.705Z,14.4
2024-05-09T01:34:47.820Z,13.4
2024-05-09T01:39:53.940Z,14.1
2024-05-09T01:44:59.076Z,13.8
2024-05-09T01:50:05.196Z,13.8
2024-05-09T01:55:11.308Z,13.8
2024-05-09T02:00:17.401Z,13.4
2024-05-09T02:05:23.527Z,12.8
2024-05-09T02:10:29.606Z,13.4
2024-05-09T02:15:35.733Z,13.4
2024-05-09T02:20:41.895Z,13.8
2024-05-09T02:25:47.964Z,13.4
2024-05-09T02:30:54.078Z,13.8
2024-05-09T02:36:00.187Z,13.1
2024-05-09T02:41:06.298Z,13.4
2024-05-09T02:46:12.414Z,13.1
2024-05-09T02:51:17.546Z,13.8
2024-05-09T02:56:23.666Z,13.4
2024-05-09T03:01:29.768Z,13.4
2024-05-09T03:06:35.874Z,13.1
2024-05-09T03:11:41.987Z,13.1
2024-05-09T03:16:48.101Z,13.4
2024-05-09T03:21:54.218Z,13.1
2024-05-09T03:27:00.304Z,12.8
2024-05-09T03:32:06.444Z,14.7
2024-05-09T03:37:12.534Z,12.8
2024-05-09T03:42:18.670Z,13.4
2024-05-09T03:47:24.796Z,13.1
2024-05-09T03:52:30.890Z,13.1
2024-05-09T03:57:36.015Z,13.1
2024-05-09T04:02:42.152Z,13.8
2024-05-09T04:07:48.238Z,12.8
2024-05-09T04:12:54.358Z,13.4
2024-05-09T04:18:00.475Z,13.1
2024-05-09T04:28:13.860Z,13.1
2024-05-09T04:33:18.820Z,13.1
2024-05-09T04:38:24.902Z,13.4
2024-05-09T04:43:31.021Z,13.4
2024-05-09T04:48:37.136Z,13.4
2024-05-09T04:53:43.257Z,13.1
2024-05-09T04:58:49.370Z,13.1
2024-05-09T05:03:54.505Z,13.4
2024-05-09T05:09:00.616Z,13.8
2024-05-09T05:14:06.726Z,12.8
2024-05-09T05:19:12.847Z,12.8
2024-05-09T05:24:18.963Z,12.8
2024-05-09T05:29:25.064Z,13.4
2024-05-09T05:34:31.164Z,13.1
2024-05-09T05:39:38.325Z,13.8
2024-05-09T05:44:43.430Z,13.1
2024-05-09T05:49:49.573Z,13.1
2024-05-09T05:54:55.589Z,13.1
2024-05-09T06:00:01.709Z,12.8
2024-05-09T06:05:07.821Z,12.8
2024-05-09T06:10:12.939Z,12.8
2024-05-09T06:15:19.049Z,13.1
2024-05-09T06:20:25.171Z,13.1
2024-05-09T06:25:31.371Z,12.8
2024-05-09T06:30:37.391Z,13.4
2024-05-09T06:35:43.672Z,13.1
2024-05-09T06:40:49.724Z,12.8
2024-05-09T06:45:55.762Z,13.1
2024-05-09T06:51:02.050Z,12.8
2024-05-09T06:56:07.939Z,13.4
2024-05-09T07:01:14.073Z,13.1
2024-05-09T07:06:20.346Z,13.1
2024-05-09T07:11:26.276Z,13.1
2024-05-09T07:16:31.472Z,13.4
2024-05-09T07:21:37.650Z,13.4
2024-05-09T07:26:43.650Z,13.4
2024-05-09T07:31:49.722Z,13.8
2024-05-09T07:36:55.834Z,13.1
2024-05-09T07:42:01.974Z,13.4
2024-05-09T07:47:08.058Z,13.4
2024-05-09T07:52:14.186Z,13.4
2024-05-09T07:57:20.280Z,13.8
2024-05-09T08:02:26.462Z,13.4
2024-05-09T08:07:32.491Z,13.8
2024-05-09T08:12:38.620Z,13.4
2024-05-09T08:17:44.749Z,13.8
2024-05-09T08:22:49.877Z,13.8
2024-05-09T08:27:55.958Z,14.1
2024-05-09T08:33:02.071Z,13.8
2024-05-09T08:38:08.190Z,15.4
2024-05-09T08:43:14.365Z,13.8
2024-05-09T08:48:20.522Z,14.4
2024-05-09T08:53:26.615Z,14.1
2024-05-09T08:58:32.738Z,14.1
2024-05-09T09:03:38.828Z,14.1
2024-05-09T09:08:44.840Z,14.4
2024-05-09T09:13:50.983Z,14.4
2024-05-09T09:18:57.073Z,14.4
2024-05-09T09:24:03.202Z,14.7
2024-05-09T09:29:08.350Z,14.4
2024-05-09T09:34:14.457Z,15
2024-05-09T09:39:20.549Z,15.4
2024-05-09T09:44:26.670Z,15
2024-05-09T09:49:32.755Z,15.4
2024-05-09T09:54:38.887Z,15.4
2024-05-09T09:59:44.988Z,15.4
2024-05-09T10:04:51.092Z,15.7
2024-05-09T10:09:57.297Z,15.4
2024-05-09T10:15:03.324Z,15.7
2024-05-09T10:20:09.452Z,15.7
2024-05-09T10:25:15.548Z,15.7
2024-05-09T10:30:21.694Z,16
2024-05-09T10:35:26.839Z,15.7
2024-05-09T10:40:32.941Z,16
2024-05-09T10:45:39.026Z,15.7
2024-05-09T10:50:45.202Z,16.3
2024-05-09T11:00:57.358Z,16.3
2024-05-09T11:06:03.552Z,16.3
2024-05-09T11:11:09.576Z,16.7
2024-05-09T11:16:15.678Z,16.7
2024-05-09T11:21:21.795Z,16.7
2024-05-09T11:26:28.935Z,16.7
2024-05-09T11:31:34.011Z,17
2024-05-09T11:36:40.126Z,17
2024-05-09T11:41:45.370Z,17
2024-05-09T11:46:51.359Z,17.3
2024-05-09T11:51:57.478Z,17.3
2024-05-09T11:57:03.576Z,17.3
2024-05-09T12:02:10.990Z,17.6
2024-05-09T12:07:15.798Z,17.3
2024-05-09T12:12:21.913Z,17
2024-05-09T12:17:28.013Z,17.6
2024-05-09T12:22:34.204Z,17.6
2024-05-09T12:27:40.247Z,18.3
2024-05-09T12:32:46.337Z,17.9
2024-05-09T12:37:52.929Z,17.9
2024-05-09T12:42:58.570Z,17.9
2024-05-09T12:48:03.712Z,18.9
2024-05-09T12:53:09.902Z,18.3
2024-05-09T12:58:16.075Z,18.3
2024-05-09T13:03:22.127Z,18.3
2024-05-09T13:08:28.222Z,18.9
2024-05-09T13:13:34.281Z,18.9
2024-05-09T13:18:40.406Z,18.6
2024-05-09T13:23:46.502Z,19.2
2024-05-09T13:28:52.572Z,18.6
2024-05-09T13:39:04.804Z,18.9
2024-05-09T13:44:10.924Z,18.6
2024-05-09T13:49:17.110Z,18.6
2024-05-09T13:54:22.149Z,18.9
2024-05-09T13:59:28.240Z,19.6
2024-05-09T14:04:34.364Z,19.2
2024-05-09T14:09:40.471Z,19.9
2024-05-09T14:14:46.584Z,18.9
2024-05-09T14:19:52.707Z,19.6
2024-05-09T14:24:58.815Z,19.2
2024-05-09T14:30:05.008Z,18.9
2024-05-09T14:35:11.038Z,19.6
2024-05-09T14:40:17.156Z,19.6
2024-05-09T14:45:23.311Z,19.9
2024-05-09T14:50:29.381Z,19.9
2024-05-09T14:55:35.506Z,19.9
2024-05-09T15:00:40.649Z,19.6
2024-05-09T15:05:46.803Z,19.6
2024-05-09T15:10:52.840Z,19.6
2024-05-09T15:15:58.961Z,19.6
2024-05-09T15:21:05.054Z,19.6
2024-05-09T15:26:11.176Z,20.2
2024-05-09T15:31:17.283Z,19.9
2024-05-09T15:36:23.395Z,20.2
2024-05-09T15:41:29.513Z,19.9
2024-05-09T15:46:35.690Z,19.6
2024-05-09T15:51:41.733Z,19.6
2024-05-09T15:56:47.876Z,20.2
2024-05-09T16:01:54.025Z,19.9
2024-05-09T16:06:59.112Z,19.9
2024-05-09T16:12:05.205Z,20.2
2024-05-09T16:17:11.306Z,19.6
2024-05-09T16:22:17.606Z,20.2
2024-05-09T16:27:23.583Z,19.9
2024-05-09T16:32:29.654Z,19.9
2024-05-09T16:37:34.802Z,19.6
2024-05-09T16:42:40.879Z,19.9
2024-05-09T16:47:46.985Z,20.2
2024-05-09T16:52:53.125Z,20.2
2024-05-09T16:57:59.220Z,19.9
2024-05-09T17:03:05.332Z,19.9
2024-05-09T17:08:11.459Z,20.2
2024-05-09T17:13:17.598Z,19.6
2024-05-09T17:18:23.682Z,19.9
2024-05-09T17:23:29.766Z,19.6
2024-05-09T17:28:35.997Z,19.9
2024-05-09T17:33:41.998Z,19.6
2024-05-09T17:38:48.096Z,19.6
2024-05-09T17:43:53.394Z,19.2
2024-05-09T17:48:59.344Z,19.6
2024-05-09T17:54:05.512Z,19.6
2024-05-09T17:59:11.568Z,19.6
2024-05-09T18:04:17.766Z,19.6
2024-05-09T18:09:24.033Z,19.2
2024-05-09T18:14:29.884Z,19.2
2024-05-09T18:19:36.014Z,19.2
2024-05-09T18:24:42.146Z,18.9
2024-05-09T18:29:48.244Z,18.9
2024-05-09T18:34:54.348Z,19.2
2024-05-09T18:40:00.458Z,18.6
2024-05-09T18:45:06.576Z,18.9
2024-05-09T18:50:11.698Z,19.6
2024-05-09T18:55:17.811Z,18.9
2024-05-09T19:00:23.901Z,19.2
2024-05-09T19:05:30.033Z,18.9
2024-05-09T19:10:36.186Z,18.6
2024-05-09T19:15:42.269Z,18.9
2024-05-09T19:20:48.413Z,18.6
2024-05-09T19:25:54.464Z,18.3
2024-05-09T19:31:00.554Z,17.9
2024-05-09T19:41:12.823Z,18.9
2024-05-09T19:46:18.905Z,18.3
2024-05-09T19:51:24.995Z,18.3
2024-05-09T19:56:30.126Z,18.3
2024-05-09T20:01:36.205Z,18.9
2024-05-09T20:06:42.331Z,18.6
2024-05-09T20:11:49.072Z,17.6
2024-05-09T20:16:54.546Z,18.3
2024-05-09T20:22:00.662Z,17.6
2024-05-09T20:27:06.776Z,18.3
2024-05-09T20:32:12.910Z,18.3
2024-05-09T20:37:19.001Z,18.6
2024-05-09T20:42:25.134Z,17.9
2024-05-09T20:47:31.228Z,18.3
2024-05-09T20:52:37.358Z,17.3
2024-05-09T20:57:43.530Z,17.9
2024-05-09T21:02:48.591Z,17.3
2024-05-09T21:07:55.004Z,17.6
2024-05-09T21:13:00.819Z,17.3
2024-05-09T21:18:07.004Z,17.6
2024-05-09T21:23:13.034Z,17.3
2024-05-09T21:28:19.266Z,17.6
2024-05-09T21:33:25.426Z,16.7
2024-05-09T21:38:31.439Z,17.3
2024-05-09T21:43:37.512Z,16.7
2024-05-09T21:48:43.651Z,17
2024-05-09T21:53:49.718Z,17.3
2024-05-09T21:58:55.945Z,17.3
2024-05-09T22:04:02.029Z,17.3
2024-05-09T22:09:07.254Z,17.6
2024-05-09T22:14:13.281Z,17.3
2024-05-09T22:19:19.353Z,16.3
2024-05-09T22:24:25.400Z,16.7
2024-05-09T22:29:31.515Z,17
2024-05-09T22:34:37.628Z,17
2024-05-09T22:39:43.768Z,16.7
2024-05-09T22:44:49.848Z,17
2024-05-09T22:49:55.964Z,16.3
2024-05-09T22:55:02.092Z,16.3
2024-05-09T23:00:08.222Z,16.3
2024-05-09T23:05:14.292Z,16.3
2024-05-09T23:10:20.385Z,16.3
2024-05-09T23:15:25.545Z,16.3
2024-05-09T23:20:31.680Z,16.7
2024-05-09T23:25:37.823Z,16
2024-05-09T23:30:43.981Z,16.3
2024-05-09T23:35:50.021Z,16.3
2024-05-09T23:40:56.152Z,16.3
2024-05-09T23:46:02.366Z,16
2024-05-09T23:51:08.308Z,16
2024-05-09T23:56:14.410Z,15.7
